Time;durP1;ratioP1;P1;durP2;ratioP2;P2;SDS_P1;SDS_P2;PMS_P1;PMS_P2;Temp;Humidity;BMP_temperature;BMP_pressure;BME280_temperature;BME280_humidity;BME280_pressure;Samples;Min_cycle;Max_cycle;Signal;HPM_P1;HPM_P2
2022/10/25 00:01:54;;;;;;;;;;;;;;;15.41;100.00;100820.19;5050485;28;20659;-73
2022/10/25 00:04:21;;;;;;;;;;;;;;;15.42;100.00;100815.38;5049267;28;20196;-75
2022/10/25 00:06:52;;;;;;;;;;;;;;;15.39;100.00;100830.97;5050261;28;19920;-73
2022/10/25 00:09:18;;;;;;;;;;;;;;;15.43;100.00;100826.09;5055135;28;19978;-73
2022/10/25 00:11:44;;;;;;;;;;;;;;;15.41;100.00;100822.19;5050645;28;19929;-73
2022/10/25 00:14:17;;;;;;;;;;;;;;;15.45;100.00;100826.47;5052033;28;19925;-72
2022/10/25 00:16:43;;;;;;;;;;;;;;;15.46;100.00;100830.81;5044230;28;19924;-75
2022/10/25 00:19:10;;;;;;;;;;;;;;;15.45;100.00;100823.69;5053362;28;19928;-72
2022/10/25 00:21:37;;;;;;;;;;;;;;;15.56;100.00;100823.50;5049545;28;19944;-73
2022/10/25 00:24:03;;;;;;;;;;;;;;;15.55;100.00;100821.13;5051624;28;20236;-70
2022/10/25 00:26:30;;;;;;;;;;;;;;;15.41;100.00;100828.56;5048068;28;19932;-73
2022/10/25 00:28:56;;;;;;;;;;;;;;;15.49;100.00;100829.97;5049504;28;20573;-72
2022/10/25 00:31:23;;;;;;;;;;;;;;;15.45;100.00;100820.91;5047999;28;20451;-72
2022/10/25 00:33:49;;;;;;;;;;;;;;;15.49;100.00;100823.59;5047907;28;20652;-72
2022/10/25 00:36:17;;;;;;;;;;;;;;;15.49;100.00;100829.19;5047684;28;19927;-72
2022/10/25 00:38:45;;;;;;;;;;;;;;;15.52;100.00;100825.53;5047731;28;19932;-74
2022/10/25 00:41:16;;;;;;;;;;;;;;;15.56;100.00;100823.50;5049947;28;19983;-71
2022/10/25 00:43:47;;;;;;;;;;;;;;;15.46;100.00;100825.25;5048766;28;19928;-72
2022/10/25 00:46:19;;;;;;;;;;;;;;;15.53;100.00;100829.91;5046700;28;19920;-73
2022/10/25 00:49:03;;;;;;;;;;;;;;;15.59;100.00;100835.78;5044163;28;19935;-72
2022/10/25 00:51:35;;;;;;;;;;;;;;;15.55;100.00;100829.50;5047296;28;19932;-72
2022/10/25 00:54:02;;;;;;;;;;;;;;;15.58;100.00;100826.63;5046721;28;19928;-72
2022/10/25 00:56:30;;;;;;;;;;;;;;;15.45;100.00;100831.25;5054402;28;19924;-72
2022/10/25 00:59:02;;;;;;;;;;;;;;;15.51;100.00;100829.56;5046003;28;19973;-74
2022/10/25 01:01:28;;;;;;;;;;;;;;;15.57;100.00;100836.97;5048135;28;20005;-74
2022/10/25 01:03:56;;;;;;;;;;;;;;;15.44;100.00;100835.25;5049495;28;19921;-73
2022/10/25 01:06:27;;;;;;;;;;;;;;;15.50;100.00;100847.50;5050364;28;20749;-73
2022/10/25 01:08:54;;;;;;;;;;;;;;;15.56;100.00;100839.44;5047930;28;19962;-73
2022/10/25 01:11:20;;;;;;;;;;;;;;;15.46;100.00;100847.56;5045720;28;19934;-72
2022/10/25 01:13:47;;;;;;;;;;;;;;;15.49;100.00;100848.69;5045151;28;21691;-73
2022/10/25 01:16:29;;;;;;;;;;;;;;;15.44;100.00;100847.22;5047304;28;19932;-72
2022/10/25 01:19:14;;;;;;;;;;;;;;;15.52;100.00;100850.63;5042289;28;19936;-73
2022/10/25 01:21:40;;;;;;;;;;;;;;;15.39;100.00;100850.47;5044743;28;19928;-72
2022/10/25 01:24:19;;;;;;;;;;;;;;;15.43;100.00;100861.59;5047911;28;19925;-72
2022/10/25 01:26:55;;;;;;;;;;;;;;;15.38;100.00;100853.69;5047156;28;19928;-72
2022/10/25 01:29:40;;;;;;;;;;;;;;;15.46;100.00;100857.94;5046375;28;19932;-73
2022/10/25 01:32:09;;;;;;;;;;;;;;;15.52;100.00;100861.78;5048963;28;20803;-72
2022/10/25 01:34:46;;;;;;;;;;;;;;;15.48;100.00;100859.09;5045308;28;20887;-72
2022/10/25 01:37:33;;;;;;;;;;;;;;;15.48;100.00;100861.06;5043839;28;19925;-71
2022/10/25 01:40:05;;;;;;;;;;;;;;;15.44;100.00;100869.53;5047890;28;20727;-72
2022/10/25 01:42:37;;;;;;;;;;;;;;;15.48;100.00;100875.03;5042542;28;19947;-73
2022/10/25 01:45:03;;;;;;;;;;;;;;;15.52;100.00;100874.97;5050534;28;20358;-73
2022/10/25 01:47:38;;;;;;;;;;;;;;;15.53;100.00;100868.97;5044344;28;19929;-71
2022/10/25 01:50:09;;;;;;;;;;;;;;;15.54;100.00;100873.31;5046786;28;20695;-72
2022/10/25 01:52:36;;;;;;;;;;;;;;;15.55;100.00;100877.66;5043756;28;20037;-72
2022/10/25 01:55:05;;;;;;;;;;;;;;;15.48;100.00;100874.25;5045511;28;20389;-72
2022/10/25 01:57:50;;;;;;;;;;;;;;;15.56;100.00;100873.69;5044218;28;20434;-71
2022/10/25 02:00:17;;;;;;;;;;;;;;;15.50;100.00;100878.94;5054538;28;19936;-70
2022/10/25 02:02:46;;;;;;;;;;;;;;;15.56;100.00;100872.88;5065862;28;20384;-70
2022/10/25 02:05:32;;;;;;;;;;;;;;;15.60;100.00;100868.81;5063782;28;19931;-71
2022/10/25 02:08:05;;;;;;;;;;;;;;;15.52;100.00;100864.56;5063620;28;19924;-71
2022/10/25 02:10:35;;;;;;;;;;;;;;;15.45;100.00;100865.50;5061125;28;20521;-71
2022/10/25 02:13:16;;;;;;;;;;;;;;;15.48;100.00;100870.25;5062245;28;19928;-70
2022/10/25 02:15:54;;;;;;;;;;;;;;;15.39;100.00;100881.16;5064789;28;19973;-71
2022/10/25 02:18:23;;;;;;;;;;;;;;;15.46;100.00;100874.69;5056675;28;20346;-71
2022/10/25 02:20:51;;;;;;;;;;;;;;;15.52;100.00;100875.72;5055435;28;19929;-72
2022/10/25 02:23:19;;;;;;;;;;;;;;;15.36;100.00;100882.00;5059721;28;19929;-71
2022/10/25 02:25:46;;;;;;;;;;;;;;;15.44;100.00;100877.88;5071074;28;19994;-71
2022/10/25 02:28:14;;;;;;;;;;;;;;;15.45;100.00;100873.88;5068923;28;19925;-71
2022/10/25 02:30:42;;;;;;;;;;;;;;;15.40;100.00;100877.13;5063013;28;19920;-71
2022/10/25 02:33:09;;;;;;;;;;;;;;;15.42;100.00;100873.94;5067918;28;20399;-72
2022/10/25 02:35:35;;;;;;;;;;;;;;;15.47;100.00;100876.25;5057580;28;20339;-69
2022/10/25 02:38:01;;;;;;;;;;;;;;;15.48;100.00;100886.97;5070077;28;19920;-71
2022/10/25 02:40:28;;;;;;;;;;;;;;;15.45;100.00;100885.03;5057465;28;20570;-71
2022/10/25 02:46:33;;;;;;;;;;;;;;;15.50;100.00;100897.69;5060046;28;20016;-72
2022/10/25 02:49:00;;;;;;;;;;;;;;;15.49;100.00;100891.31;5071416;28;19928;-71
2022/10/25 02:51:26;;;;;;;;;;;;;;;15.50;100.00;100889.34;5064894;28;19920;-71
2022/10/25 02:53:52;;;;;;;;;;;;;;;15.55;100.00;100890.84;5066457;28;19932;-71
2022/10/25 02:56:20;;;;;;;;;;;;;;;15.56;100.00;100890.44;5062778;28;20277;-72
2022/10/25 02:58:48;;;;;;;;;;;;;;;15.55;100.00;100894.41;5074459;28;19921;-73
2022/10/25 03:01:15;;;;;;;;;;;;;;;15.59;100.00;100903.50;5071794;28;19924;-71
2022/10/25 03:03:42;;;;;;;;;;;;;;;15.52;100.00;100907.22;5072130;28;19920;-72
2022/10/25 03:06:09;;;;;;;;;;;;;;;15.63;100.00;100897.84;5062120;28;19925;-71
2022/10/25 03:08:36;;;;;;;;;;;;;;;15.57;100.00;100908.72;5071063;28;20320;-72
2022/10/25 03:11:03;;;;;;;;;;;;;;;15.55;100.00;100911.13;5061645;28;19927;-71
2022/10/25 03:13:29;;;;;;;;;;;;;;;15.63;100.00;100907.03;5059335;28;19935;-72
2022/10/25 03:15:56;;;;;;;;;;;;;;;15.53;100.00;100917.13;5066959;28;19925;-68
2022/10/25 03:18:22;;;;;;;;;;;;;;;15.57;100.00;100917.84;5069698;28;19932;-69
2022/10/25 03:20:49;;;;;;;;;;;;;;;15.57;100.00;100917.09;5057284;28;19924;-70
2022/10/25 03:23:16;;;;;;;;;;;;;;;15.63;100.00;100911.81;5067727;28;19965;-70
2022/10/25 03:25:42;;;;;;;;;;;;;;;15.64;100.00;100916.97;5064578;28;19920;-72
2022/10/25 03:28:08;;;;;;;;;;;;;;;15.67;100.00;100915.31;5068558;28;19924;-71
2022/10/25 03:30:35;;;;;;;;;;;;;;;15.67;100.00;100918.91;5062710;28;19928;-70
2022/10/25 03:33:01;;;;;;;;;;;;;;;15.67;100.00;100918.91;5064973;28;19927;-73
2022/10/25 03:35:30;;;;;;;;;;;;;;;15.67;100.00;100918.09;5058725;28;20407;-71
2022/10/25 03:37:56;;;;;;;;;;;;;;;15.70;100.00;100925.63;5070072;28;19981;-70
2022/10/25 03:40:22;;;;;;;;;;;;;;;15.75;100.00;100922.31;5061802;28;19970;-72
2022/10/25 03:42:49;;;;;;;;;;;;;;;15.71;100.00;100927.97;5061343;28;20667;-72
2022/10/25 03:45:15;;;;;;;;;;;;;;;15.72;100.00;100926.75;5062028;28;19921;-71
2022/10/25 03:47:42;;;;;;;;;;;;;;;15.67;100.00;100926.47;5054120;28;19940;-69
2022/10/25 03:50:08;;;;;;;;;;;;;;;15.77;100.00;100933.84;5066321;28;20354;-72
2022/10/25 03:52:35;;;;;;;;;;;;;;;15.66;100.00;100938.84;5065486;28;19940;-72
2022/10/25 03:55:01;;;;;;;;;;;;;;;15.69;100.00;100935.22;5053862;28;19928;-70
2022/10/25 03:57:27;;;;;;;;;;;;;;;15.79;100.00;100945.38;5069277;28;19928;-72
2022/10/25 03:59:54;;;;;;;;;;;;;;;15.74;100.00;100937.50;5069220;28;19974;-71
2022/10/25 04:02:22;;;;;;;;;;;;;;;15.79;100.00;100937.78;5066244;28;20024;-72
2022/10/25 04:04:53;;;;;;;;;;;;;;;15.79;100.00;100937.00;5068867;28;19930;-71
2022/10/25 04:07:19;;;;;;;;;;;;;;;15.76;100.00;100941.41;5065622;28;20338;-72
2022/10/25 04:09:46;;;;;;;;;;;;;;;15.66;100.00;100945.19;5068808;28;19925;-73
2022/10/25 04:12:12;;;;;;;;;;;;;;;15.78;100.00;100949.38;5067066;28;19920;-72
2022/10/25 04:14:41;;;;;;;;;;;;;;;15.69;100.00;100947.13;5074636;28;19924;-72
2022/10/25 04:17:07;;;;;;;;;;;;;;;15.71;100.00;100944.72;5072108;28;20378;-72
2022/10/25 04:19:34;;;;;;;;;;;;;;;15.76;100.00;100949.03;5075629;28;19920;-72
2022/10/25 04:22:03;;;;;;;;;;;;;;;15.76;100.00;100955.38;5068314;28;19921;-72
2022/10/25 04:24:30;;;;;;;;;;;;;;;15.64;100.00;100964.38;5072516;28;19928;-72
2022/10/25 04:26:56;;;;;;;;;;;;;;;15.63;100.00;100962.81;5066699;28;19920;-72
2022/10/25 04:29:22;;;;;;;;;;;;;;;15.71;100.00;100961.47;5060064;28;19924;-72
2022/10/25 04:31:49;;;;;;;;;;;;;;;15.69;100.00;100971.47;5059335;28;19948;-71
2022/10/25 04:34:15;;;;;;;;;;;;;;;15.71;100.00;100961.47;5064638;28;19924;-71
2022/10/25 04:36:44;;;;;;;;;;;;;;;15.79;100.00;100973.28;5060344;28;20388;-70
2022/10/25 04:39:13;;;;;;;;;;;;;;;15.70;100.00;100981.41;5057164;28;20417;-73
2022/10/25 04:41:40;;;;;;;;;;;;;;;15.73;100.00;100973.00;5063341;28;19924;-72
2022/10/25 04:44:06;;;;;;;;;;;;;;;15.76;100.00;100974.13;5071685;28;20387;-72
2022/10/25 04:46:32;;;;;;;;;;;;;;;15.82;100.00;100978.00;5062796;28;20412;-71
2022/10/25 04:48:59;;;;;;;;;;;;;;;15.71;100.00;100989.34;5069304;28;19934;-71
2022/10/25 04:51:25;;;;;;;;;;;;;;;15.75;100.00;100972.53;5067665;28;19978;-71
2022/10/25 04:53:52;;;;;;;;;;;;;;;15.78;100.00;100974.47;5058745;28;19932;-72
2022/10/25 04:56:18;;;;;;;;;;;;;;;15.78;100.00;100988.44;5066066;28;19950;-72
2022/10/25 04:58:46;;;;;;;;;;;;;;;15.82;100.00;100980.81;5069833;28;19929;-73
2022/10/25 05:01:14;;;;;;;;;;;;;;;15.75;100.00;100964.97;5067549;28;20380;-70
2022/10/25 05:03:41;;;;;;;;;;;;;;;15.69;100.00;100975.03;5060996;28;19921;-72
2022/10/25 05:06:12;;;;;;;;;;;;;;;15.80;100.00;100977.63;5065191;28;19966;-72
2022/10/25 05:08:39;;;;;;;;;;;;;;;15.82;100.00;100976.00;5076690;28;19928;-73
2022/10/25 05:11:06;;;;;;;;;;;;;;;15.78;100.00;100980.06;5064342;28;19927;-73
2022/10/25 05:13:34;;;;;;;;;;;;;;;15.81;100.00;100984.78;5066800;28;19932;-71
2022/10/25 05:16:00;;;;;;;;;;;;;;;15.74;100.00;100988.50;5070881;28;19924;-70
2022/10/25 05:18:27;;;;;;;;;;;;;;;15.71;100.00;100994.94;5069811;28;19966;-72
2022/10/25 05:20:57;;;;;;;;;;;;;;;15.78;100.00;100992.00;5066823;28;19925;-71
2022/10/25 05:23:23;;;;;;;;;;;;;;;15.69;100.00;101002.16;5067108;28;19940;-74
2022/10/25 05:26:03;;;;;;;;;;;;;;;15.82;100.00;100995.53;5072571;28;20360;-72
2022/10/25 05:28:30;;;;;;;;;;;;;;;15.65;100.00;101004.22;5064196;28;19974;-72
2022/10/25 05:30:57;;;;;;;;;;;;;;;15.75;100.00;101003.22;5062073;28;20280;-72
2022/10/25 05:33:26;;;;;;;;;;;;;;;15.73;100.00;101022.41;5064822;28;19970;-72
2022/10/25 05:35:52;;;;;;;;;;;;;;;15.73;100.00;101012.03;5066773;28;20423;-72
2022/10/25 05:38:19;;;;;;;;;;;;;;;15.73;100.00;101016.81;5076424;28;19924;-72
2022/10/25 05:40:55;;;;;;;;;;;;;;;15.74;100.00;101012.81;5073910;28;20261;-72
2022/10/25 05:43:21;;;;;;;;;;;;;;;15.70;100.00;101017.66;5060972;28;19986;-73
2022/10/25 05:45:48;;;;;;;;;;;;;;;15.64;100.00;101013.78;5055810;28;19947;-71
2022/10/25 05:48:14;;;;;;;;;;;;;;;15.79;100.00;101021.47;5065561;28;19931;-72
2022/10/25 05:50:41;;;;;;;;;;;;;;;15.65;100.00;101032.13;5059337;28;19924;-71
2022/10/25 05:53:12;;;;;;;;;;;;;;;15.58;100.00;101033.00;5072298;28;19957;-72
2022/10/25 05:55:38;;;;;;;;;;;;;;;15.61;100.00;101043.31;5067029;28;19924;-72
2022/10/25 05:58:14;;;;;;;;;;;;;;;15.60;100.00;101036.19;5064161;28;19929;-72
2022/10/25 06:00:40;;;;;;;;;;;;;;;15.53;100.00;101039.09;5067830;28;19920;-71
2022/10/25 06:03:07;;;;;;;;;;;;;;;15.45;100.00;101038.41;5071459;28;19940;-70
2022/10/25 06:05:35;;;;;;;;;;;;;;;15.48;100.00;101033.19;5068424;28;19978;-70
2022/10/25 06:08:01;;;;;;;;;;;;;;;15.49;100.00;101035.53;5070940;28;19977;-70
2022/10/25 06:10:27;;;;;;;;;;;;;;;15.48;100.00;101040.34;5067202;28;19932;-70
2022/10/25 06:12:54;;;;;;;;;;;;;;;15.43;100.00;101040.81;5070617;28;19978;-71
2022/10/25 06:15:20;;;;;;;;;;;;;;;15.53;100.00;101048.22;5065958;28;19936;-71
2022/10/25 06:17:46;;;;;;;;;;;;;;;15.55;100.00;101047.78;5073202;28;19935;-72
2022/10/25 06:20:13;;;;;;;;;;;;;;;15.57;100.00;101048.19;5067025;28;19982;-71
2022/10/25 06:22:39;;;;;;;;;;;;;;;15.56;100.00;101062.53;5066619;28;19925;-72
2022/10/25 06:25:06;;;;;;;;;;;;;;;15.56;100.00;101057.75;5068415;28;19932;-71
2022/10/25 06:27:32;;;;;;;;;;;;;;;15.45;100.00;101062.69;5070900;28;19928;-70
2022/10/25 06:29:58;;;;;;;;;;;;;;;15.56;100.00;101057.75;5067791;28;19924;-72
2022/10/25 06:32:24;;;;;;;;;;;;;;;15.54;100.00;101065.75;5067368;28;19955;-71
2022/10/25 06:34:54;;;;;;;;;;;;;;;15.50;100.00;101076.94;5055768;28;19997;-71
2022/10/25 06:37:20;;;;;;;;;;;;;;;15.47;100.00;101077.03;5061680;28;20336;-71
2022/10/25 06:39:47;;;;;;;;;;;;;;;15.43;100.00;101074.28;5069297;28;19946;-71
2022/10/25 06:42:13;;;;;;;;;;;;;;;15.42;100.00;101080.28;5067003;28;19931;-72
2022/10/25 06:44:39;;;;;;;;;;;;;;;15.42;100.00;101074.69;5068871;28;19978;-71
2022/10/25 06:47:05;;;;;;;;;;;;;;;15.41;100.00;101090.66;5071436;28;19967;-71
2022/10/25 06:49:47;;;;;;;;;;;;;;;15.41;100.00;101081.47;5069966;28;19991;-72
2022/10/25 06:52:13;;;;;;;;;;;;;;;15.44;100.00;101095.38;5064077;28;20351;-70
2022/10/25 06:54:40;;;;;;;;;;;;;;;15.39;100.00;101087.47;5057342;28;19928;-71
2022/10/25 06:57:06;;;;;;;;;;;;;;;15.35;100.00;101091.50;5061501;28;19974;-72
2022/10/25 06:59:32;;;;;;;;;;;;;;;15.40;100.00;101105.78;5061831;28;20420;-72
2022/10/25 07:01:59;;;;;;;;;;;;;;;15.33;100.00;101111.44;5057504;28;19978;-72
2022/10/25 07:04:25;;;;;;;;;;;;;;;15.40;100.00;101110.59;5068352;28;19924;-70
2022/10/25 07:06:52;;;;;;;;;;;;;;;15.40;100.00;101125.31;5063449;28;19928;-73
2022/10/25 07:09:21;;;;;;;;;;;;;;;15.43;100.00;101120.91;5062553;28;19924;-70
2022/10/25 07:11:47;;;;;;;;;;;;;;;15.53;100.00;101125.53;5075105;28;19924;-70
2022/10/25 07:14:13;;;;;;;;;;;;;;;15.57;100.00;101132.63;5070149;28;19924;-72
2022/10/25 07:16:40;;;;;;;;;;;;;;;15.65;100.00;101127.72;5072278;28;19928;-72
2022/10/25 07:19:06;;;;;;;;;;;;;;;15.58;100.00;101139.00;5068276;28;20331;-73
2022/10/25 07:21:33;;;;;;;;;;;;;;;15.65;100.00;101143.69;5067828;28;19950;-72
2022/10/25 07:24:00;;;;;;;;;;;;;;;15.72;100.00;101138.78;5073520;28;19928;-73
2022/10/25 07:26:27;;;;;;;;;;;;;;;15.71;100.00;101139.19;5082159;28;20395;-72
2022/10/25 07:28:55;;;;;;;;;;;;;;;15.83;100.00;101147.00;5073438;28;19927;-72
2022/10/25 07:31:26;;;;;;;;;;;;;;;15.70;100.00;101143.22;5068374;28;19915;-72
2022/10/25 07:33:53;;;;;;;;;;;;;;;15.79;100.00;101147.03;5059247;28;19920;-73
2022/10/25 07:36:19;;;;;;;;;;;;;;;15.72;100.00;101154.75;5064608;28;19920;-72
2022/10/25 07:38:46;;;;;;;;;;;;;;;15.80;100.00;101162.59;5069288;28;19929;-72
2022/10/25 07:41:12;;;;;;;;;;;;;;;15.88;100.00;101160.44;5075685;28;19919;-72
2022/10/25 07:43:38;;;;;;;;;;;;;;;15.93;100.00;101157.97;5062016;28;20963;-71
2022/10/25 07:46:05;;;;;;;;;;;;;;;15.76;100.00;101172.22;5073671;28;19921;-72
2022/10/25 07:48:32;;;;;;;;;;;;;;;15.88;100.00;101158.47;5063767;28;19927;-72
2022/10/25 07:51:10;;;;;;;;;;;;;;;15.88;100.00;101160.44;5070369;28;19927;-72
2022/10/25 07:53:36;;;;;;;;;;;;;;;15.80;100.00;101172.94;5064690;28;19916;-71
2022/10/25 07:56:02;;;;;;;;;;;;;;;15.95;100.00;101161.13;5068382;28;20003;-72
2022/10/25 07:58:29;;;;;;;;;;;;;;;15.89;100.00;101162.06;5073406;28;20340;-72
2022/10/25 08:00:59;;;;;;;;;;;;;;;15.87;100.00;101170.03;5067559;28;19928;-71
2022/10/25 08:03:26;;;;;;;;;;;;;;;16.02;100.00;101169.41;5067782;28;19916;-71
2022/10/25 08:05:52;;;;;;;;;;;;;;;15.95;100.00;101168.72;5069472;28;19921;-71
2022/10/25 08:08:22;;;;;;;;;;;;;;;16.03;100.00;101170.19;5072848;28;19935;-71
2022/10/25 08:10:48;;;;;;;;;;;;;;;15.97;100.00;101175.47;5066851;28;20414;-71
2022/10/25 08:13:14;;;;;;;;;;;;;;;16.04;100.00;101169.78;5069176;28;19928;-71
2022/10/25 08:15:41;;;;;;;;;;;;;;;16.06;100.00;101181.28;5072535;28;19925;-71
2022/10/25 08:18:08;;;;;;;;;;;;;;;16.11;100.00;101180.03;5072015;28;19921;-69
2022/10/25 08:20:35;;;;;;;;;;;;;;;16.07;100.00;101176.50;5070649;28;20011;-71
2022/10/25 08:23:22;;;;;;;;;;;;;;;16.10;100.00;101170.09;5063627;28;19925;-71
2022/10/25 08:25:48;;;;;;;;;;;;;;;15.97;100.00;101172.69;5061478;28;19931;-72
2022/10/25 08:28:15;;;;;;;;;;;;;;;16.09;100.00;101182.44;5066402;28;19982;-71
2022/10/25 08:30:41;;;;;;;;;;;;;;;16.15;100.00;101175.16;5071417;28;19927;-69
2022/10/25 08:33:08;;;;;;;;;;;;;;;16.07;100.00;101179.31;5072851;28;19930;-70
2022/10/25 08:35:37;;;;;;;;;;;;;;;16.05;100.00;101184.50;5071923;28;19950;-71
2022/10/25 08:38:03;;;;;;;;;;;;;;;16.03;100.00;101181.38;5071952;28;19924;-74
2022/10/25 08:40:48;;;;;;;;;;;;;;;16.08;100.00;101189.25;5067922;28;19924;-71
2022/10/25 08:43:30;;;;;;;;;;;;;;;16.02;100.00;101179.75;5064561;28;19939;-71
2022/10/25 08:45:58;;;;;;;;;;;;;;;15.99;100.00;101187.00;5069646;28;20069;-70
2022/10/25 08:48:30;;;;;;;;;;;;;;;15.93;100.00;101185.88;5069053;28;19928;-71
2022/10/25 08:50:59;;;;;;;;;;;;;;;16.03;100.00;101184.16;5064706;28;19928;-71
2022/10/25 08:53:38;;;;;;;;;;;;;;;15.97;100.00;101197.81;5088996;28;20260;-71
2022/10/25 08:56:05;;;;;;;;;;;;;;;16.16;100.00;101193.53;5067711;28;20654;-72
2022/10/25 08:58:53;;;;;;;;;;;;;;;16.06;100.00;101198.03;5068623;28;19920;-74
2022/10/25 09:01:25;;;;;;;;;;;;;;;15.91;100.00;101201.47;5069751;28;19920;-72
2022/10/25 09:03:52;;;;;;;;;;;;;;;16.21;100.00;101201.41;5074731;28;19980;-71
2022/10/25 09:06:41;;;;;;;;;;;;;;;16.23;100.00;101201.78;5076879;28;20689;-71
2022/10/25 09:09:08;;;;;;;;;;;;;;;16.21;100.00;101210.56;5055190;28;20412;-72
2022/10/25 09:11:55;;;;;;;;;;;;;;;16.28;100.00;101220.81;5065146;28;20316;-72
2022/10/25 09:14:28;;;;;;;;;;;;;;;16.40;100.00;101211.84;5066371;28;19920;-72
2022/10/25 09:17:17;;;;;;;;;;;;;;;16.36;100.00;101208.31;5071690;28;19920;-71
2022/10/25 09:19:44;;;;;;;;;;;;;;;16.28;100.00;101209.66;5053877;28;20027;-73
2022/10/25 09:22:20;;;;;;;;;;;;;;;16.31;100.00;101214.41;5062644;28;21818;-73
2022/10/25 09:24:46;;;;;;;;;;;;;;;16.44;100.00;101224.56;5054296;28;19920;-72
2022/10/25 09:27:13;;;;;;;;;;;;;;;16.41;100.00;101224.59;5055460;28;19920;-72
2022/10/25 09:29:42;;;;;;;;;;;;;;;16.47;100.00;101220.16;5050465;28;19935;-72
2022/10/25 09:32:17;;;;;;;;;;;;;;;16.41;100.00;101219.81;5045815;28;21170;-71
2022/10/25 09:34:44;;;;;;;;;;;;;;;16.39;100.00;101224.22;5050088;28;19928;-72
2022/10/25 09:37:16;;;;;;;;;;;;;;;16.63;100.00;101229.41;5062388;28;20026;-72
2022/10/25 09:39:50;;;;;;;;;;;;;;;16.51;100.00;101229.25;5051425;28;20295;-72
2022/10/25 09:42:25;;;;;;;;;;;;;;;16.64;100.00;101241.41;5050078;28;19920;-72
2022/10/25 09:44:55;;;;;;;;;;;;;;;16.58;100.00;101234.72;5048847;28;19920;-72
2022/10/25 09:47:41;;;;;;;;;;;;;;;16.83;100.00;101235.84;5051665;28;19947;-73
2022/10/25 09:50:15;;;;;;;;;;;;;;;16.95;100.00;101240.03;5053442;28;19924;-72
2022/10/25 09:52:52;;;;;;;;;;;;;;;16.79;100.00;101235.13;5047329;28;19927;-72
2022/10/25 09:55:38;;;;;;;;;;;;;;;16.79;100.00;101245.50;5047018;28;19963;-72
2022/10/25 09:58:04;;;;;;;;;;;;;;;16.80;100.00;101255.47;5047592;28;20581;-72
2022/10/25 10:00:31;;;;;;;;;;;;;;;16.79;100.00;101246.31;5047484;28;19924;-73
2022/10/25 10:02:58;;;;;;;;;;;;;;;16.70;100.00;101253.63;5038678;28;20745;-72
2022/10/25 10:05:25;;;;;;;;;;;;;;;16.77;100.00;101253.53;5039036;28;20375;-72
2022/10/25 10:07:53;;;;;;;;;;;;;;;16.83;100.00;101261.00;5049169;28;19924;-72
2022/10/25 10:10:23;;;;;;;;;;;;;;;16.84;100.00;101259.00;5062245;28;19930;-73
2022/10/25 10:13:02;;;;;;;;;;;;;;;16.78;100.00;101255.88;5044180;28;19928;-70
2022/10/25 10:15:37;;;;;;;;;;;;;;;16.78;100.00;101269.09;5055503;28;20732;-72
2022/10/25 10:18:22;;;;;;;;;;;;;;;16.98;100.00;101261.53;5044735;28;19935;-71
2022/10/25 10:20:57;;;;;;;;;;;;;;;17.20;100.00;101260.69;5042348;28;19934;-71
2022/10/25 10:23:24;;;;;;;;;;;;;;;17.36;100.00;101268.38;5051946;28;20739;-72
2022/10/25 10:25:51;;;;;;;;;;;;;;;17.54;100.00;101266.03;5049572;28;20322;-71
2022/10/25 10:28:18;;;;;;;;;;;;;;;17.75;100.00;101262.75;5046171;28;19931;-72
2022/10/25 10:30:51;;;;;;;;;;;;;;;17.62;100.00;101275.88;5049465;28;19934;-72
2022/10/25 10:33:18;;;;;;;;;;;;;;;17.79;100.00;101277.50;5046504;28;19927;-72
2022/10/25 10:35:44;;;;;;;;;;;;;;;18.08;100.00;101275.63;5044650;28;19970;-72
2022/10/25 10:38:21;;;;;;;;;;;;;;;17.96;100.00;101279.13;5044948;28;20206;-72
2022/10/25 10:40:48;;;;;;;;;;;;;;;17.95;100.00;101272.72;5045097;28;20329;-73
2022/10/25 10:43:28;;;;;;;;;;;;;;;17.57;100.00;101290.34;5045070;28;19924;-72
2022/10/25 10:45:57;;;;;;;;;;;;;;;18.08;100.00;101280.44;5051242;28;20045;-72
2022/10/25 10:48:23;;;;;;;;;;;;;;;17.95;100.00;101283.13;5055968;28;20726;-72
2022/10/25 10:50:50;;;;;;;;;;;;;;;17.76;100.00;101297.94;5055180;28;19998;-73
2022/10/25 10:53:19;;;;;;;;;;;;;;;17.74;100.00;101278.00;5055191;28;19928;-73
2022/10/25 10:55:51;;;;;;;;;;;;;;;17.76;100.00;101281.16;5057379;28;19925;-72
2022/10/25 10:58:23;;;;;;;;;;;;;;;18.11;100.00;101285.16;5057611;28;19924;-73
2022/10/25 11:00:51;;;;;;;;;;;;;;;18.31;100.00;101277.47;5053704;28;19924;-72
2022/10/25 11:03:56;;;;;;;;;;;;;;;18.29;100.00;101283.53;5051316;28;19931;-72
2022/10/25 11:06:27;;;;;;;;;;;;;;;18.29;100.00;101294.72;4985169;28;19925;-72
2022/10/25 11:09:23;;;;;;;;;;;;;;;18.11;100.00;101279.56;4984118;28;20071;-72
2022/10/25 11:12:15;;;;;;;;;;;;;;;18.08;100.00;101289.63;4973563;28;19925;-73
2022/10/25 11:14:42;;;;;;;;;;;;;;;18.16;100.00;101288.25;4986334;28;19999;-72
2022/10/25 11:17:16;;;;;;;;;;;;;;;18.15;100.00;101281.06;4983755;28;20694;-72
2022/10/25 11:19:50;;;;;;;;;;;;;;;18.27;100.00;101282.38;4982637;28;19925;-71
2022/10/25 11:22:28;;;;;;;;;;;;;;;18.21;100.00;101293.31;4982842;28;20520;-73
2022/10/25 11:25:16;;;;;;;;;;;;;;;18.18;100.00;101290.59;4984589;28;19925;-72
2022/10/25 11:27:58;;;;;;;;;;;;;;;18.16;100.00;101291.06;4987099;28;19995;-73
2022/10/25 11:30:30;;;;;;;;;;;;;;;18.26;100.00;101292.03;4988660;28;19932;-72
2022/10/25 11:33:02;;;;;;;;;;;;;;;18.37;100.00;101290.59;4992388;28;20388;-72
2022/10/25 11:35:28;;;;;;;;;;;;;;;18.39;100.00;101287.34;4991411;28;19925;-73
2022/10/25 11:38:01;;;;;;;;;;;;;;;18.42;100.00;101295.66;5033383;28;19932;-73
2022/10/25 11:40:54;;;;;;;;;;;;;;;18.21;100.00;101298.94;5053413;28;19924;-72
2022/10/25 11:43:20;;;;;;;;;;;;;;;18.23;100.00;101292.91;5048820;28;19924;-73
2022/10/25 11:45:54;;;;;;;;;;;;;;;18.23;100.00;101296.50;5045765;28;20837;-73
2022/10/25 11:48:20;;;;;;;;;;;;;;;18.66;100.00;101299.84;5051163;28;20367;-73
2022/10/25 11:51:13;;;;;;;;;;;;;;;18.86;100.00;101294.94;5064924;28;20478;-73
2022/10/25 11:53:45;;;;;;;;;;;;;;;18.86;100.00;101299.78;5045604;28;19924;-73
2022/10/25 11:56:28;;;;;;;;;;;;;;;18.69;100.00;101295.41;5048633;28;19928;-73
2022/10/25 11:59:13;;;;;;;;;;;;;;;18.61;100.00;101299.59;5052101;28;19928;-73
2022/10/25 12:01:58;;;;;;;;;;;;;;;18.89;100.00;101296.06;5055261;28;19940;-73
2022/10/25 12:04:33;;;;;;;;;;;;;;;18.77;100.00;101303.19;5054418;28;19924;-72
2022/10/25 12:07:03;;;;;;;;;;;;;;;18.70;100.00;101300.53;5048666;28;19928;-72
2022/10/25 12:09:49;;;;;;;;;;;;;;;18.70;100.00;101299.78;5048024;28;19924;-70
2022/10/25 12:12:17;;;;;;;;;;;;;;;18.73;100.00;101302.47;5043733;28;19947;-72
2022/10/25 12:14:50;;;;;;;;;;;;;;;18.27;100.00;101294.38;5048005;28;19928;-73
2022/10/25 12:17:16;;;;;;;;;;;;;;;18.59;100.00;101291.63;5057072;28;20014;-73
2022/10/25 12:19:44;;;;;;;;;;;;;;;18.45;100.00;101306.00;5049130;28;19924;-72
2022/10/25 12:22:19;;;;;;;;;;;;;;;18.25;100.00;101298.84;5055502;28;19970;-72
2022/10/25 12:24:48;;;;;;;;;;;;;;;18.15;100.00;101309.06;5055176;28;19920;-73
2022/10/25 12:27:16;;;;;;;;;;;;;;;18.28;100.00;101300.75;5049184;28;19935;-73
2022/10/25 12:29:45;;;;;;;;;;;;;;;18.30;100.00;101303.94;5058057;28;19931;-73
2022/10/25 12:32:25;;;;;;;;;;;;;;;19.16;100.00;101304.97;5059449;28;19924;-73
2022/10/25 12:34:53;;;;;;;;;;;;;;;19.53;100.00;101307.97;5049293;28;19977;-71
2022/10/25 12:37:25;;;;;;;;;;;;;;;20.20;100.00;101305.97;5053074;28;19950;-73
2022/10/25 12:39:52;;;;;;;;;;;;;;;20.89;95.69;101301.31;5050326;28;19931;-71
2022/10/25 12:42:21;;;;;;;;;;;;;;;20.53;94.14;101310.13;5053217;28;19924;-72
2022/10/25 12:45:06;;;;;;;;;;;;;;;20.32;94.34;101300.34;5055169;28;19924;-72
2022/10/25 12:47:44;;;;;;;;;;;;;;;20.24;96.93;101303.84;5051488;28;19924;-73